• Join FlightAware (Why Join?)
  • Login
  • US Flag 
05:56AM EST


 

Airport Tracker/Info


-or-


 

Live Flight TrackerFlight Track Log ✈ SWA2436 ✈ 12-Apr-2013 ✈ KMHT - KMCO

Flight Track Log - Related Links

Times and Time Zones

All times are in EDT time to prevent confusion due to time zone crossing. See the SWA2436 flight status page for this flight to view local times or setup timezone preferences in your user account.

Time Position Orientation Groundspeed Altitude Reporting Facility
EDT Latitude Longitude Course Direction KTS MPH feet Rate Location/Type
04:57PM 42.9500 -71.4167 14° North 152 175 1,400  Level KA90
04:58PM 43.0000 -71.4000 14° North 211 243 3,600 2,040 Climbing KA90
04:58PM 43.0019 -71.3756 84° East 225 259 4,100 1,920 Climbing Boston Center
04:59PM 43.0239 -71.2728 74° East 268 308 6,400 2,940 Climbing Boston Center
05:00PM 43.0478 -71.1672 73° East 301 346 9,900 2,820 Climbing Boston Center
05:01PM 43.0731 -71.0133 77° East 350 403 12,000 2,280 Climbing Boston Center
05:02PM 43.0133 -70.9153 130° Southeast 354 407 14,600 2,880 Climbing Boston Center
05:03PM 42.9092 -70.9178 181° South 300 345 17,900 2,520 Climbing Boston Center
05:04PM 42.8283 -70.9594 201° Southwest 303 349 19,700 2,100 Climbing Boston Center
05:05PM 42.7289 -71.0072 199° South 340 391 22,200 2,280 Climbing Boston Center
05:06PM 42.6233 -71.0631 201° Southwest 376 433 24,300 1,980 Climbing Boston Center
05:07PM 42.5622 -71.1828 235° Southwest 378 435 26,200 1,800 Climbing Boston Center
05:08PM 42.5094 -71.3136 241° Southwest 383 441 28,000 1,800 Climbing Boston Center
05:09PM 42.4567 -71.4522 243° Southwest 403 464 29,900 1,860 Climbing Boston Center
05:10PM 42.3972 -71.5825 238° Southwest 409 471 31,800 2,040 Climbing Boston Center
05:11PM 42.3439 -71.7097 240° Southwest 409 471 34,100 1,860 Climbing Boston Center
05:12PM 42.2944 -71.8339 242° Southwest 398 458 35,600 1,320 Climbing Boston Center
05:13PM 42.2411 -71.9606 240° Southwest 393 452 36,800 1,020 Climbing Boston Center
05:14PM 42.1894 -72.0869 241° Southwest 393 452 37,700 600 Climbing Boston Center
05:15PM 42.1356 -72.2189 241° Southwest 399 459 38,000 120 Climbing Boston Center
05:16PM 42.0897 -72.3339 242° Southwest 399 459 38,000  Level Boston Center
05:17PM 42.0253 -72.4847 240° Southwest 399 459 38,000  Level Boston Center
05:18PM 41.9731 -72.6106 241° Southwest 399 459 38,000  Level Boston Center
05:19PM 41.9250 -72.7136 238° Southwest 386 444 38,000  Level Boston Center
05:20PM 41.8392 -72.8275 225° Southwest 386 444 38,000  Level Boston Center
05:21PM 41.7617 -72.9356 226° Southwest 394 453 38,000  Level Boston Center
05:22PM 41.6881 -73.0350 225° Southwest 399 459 38,000  Level Boston Center
05:23PM 41.6147 -73.1342 225° Southwest 393 452 38,000  Level Boston Center
05:25PM 41.4969 -73.2919 225° Southwest 377 434 38,000  Level New York Center
05:26PM 41.4219 -73.3942 226° Southwest 377 434 38,000  Level New York Center
05:27PM 41.3467 -73.4961 225° Southwest 377 434 38,000  Level New York Center
05:28PM 41.2714 -73.5978 225° Southwest 383 441 38,000  Level New York Center
05:29PM 41.2061 -73.7108 233° Southwest 383 441 38,000  Level New York Center
05:30PM 41.1411 -73.8211 232° Southwest 388 447 38,000  Level New York Center
05:31PM 41.0778 -73.9311 233° Southwest 388 447 38,000  Level New York Center
05:32PM 41.0144 -74.0353 231° Southwest 382 440 38,000  Level New York Center
05:33PM 40.9508 -74.1450 233° Southwest 382 440 38,000  Level New York Center
05:34PM 40.8747 -74.2619 229° Southwest 382 440 38,000  Level New York Center
05:35PM 40.8089 -74.3681 231° Southwest 388 447 38,000  Level New York Center
05:36PM 40.7431 -74.4797 232° Southwest 388 447 38,000  Level New York Center
05:37PM 40.6769 -74.5883 231° Southwest 388 447 38,000  Level New York Center
05:38PM 40.6089 -74.6939 230° Southwest 388 447 38,000  Level New York Center
05:39PM 40.5386 -74.8044 230° Southwest 389 448 38,000  Level New York Center
05:40PM 40.4683 -74.9039 227° Southwest 389 448 38,000  Level New York Center
05:41PM 40.3981 -75.0061 228° Southwest 384 442 38,000  Level New York Center
05:42PM 40.3278 -75.1053 227° Southwest 379 436 38,000  Level New York Center
05:43PM 40.2553 -75.2067 227° Southwest 379 436 38,000  Level New York Center
05:44PM 40.1847 -75.3081 228° Southwest 379 436 38,000  Level New York Center
05:45PM 40.1142 -75.4042 226° Southwest 379 436 38,000  Level New York Center
05:46PM 40.0414 -75.5050 227° Southwest 379 436 38,000  Level New York Center
05:47PM 39.9708 -75.6031 227° Southwest 379 436 38,000  Level New York Center
05:48PM 39.9019 -75.7067 229° Southwest 379 436 38,000  Level New York Center
05:49PM 39.8328 -75.8125 230° Southwest 385 443 38,000  Level New York Center
05:50PM 39.7656 -75.9186 231° Southwest 385 443 38,000  Level New York Center
05:51PM 39.7025 -76.0244 232° Southwest 385 443 38,000  Level New York Center
05:53PM 39.5681 -76.2242 229° Southwest 363 418 38,000  Level Washington Center
05:54PM 39.5031 -76.3283 231° Southwest 363 418 38,000  Level Washington Center
05:55PM 39.4356 -76.4325 230° Southwest 375 432 38,000  Level Washington Center
05:56PM 39.3786 -76.5233 231° Southwest 375 432 38,000  Level Washington Center
05:57PM 39.3111 -76.6269 230° Southwest 375 432 38,000  Level Washington Center
05:58PM 39.2456 -76.7306 231° Southwest 375 432 38,000  Level Washington Center
05:59PM 39.1800 -76.8314 230° Southwest 375 432 38,000  Level Washington Center
06:00PM 39.1144 -76.9344 231° Southwest 375 432 38,000  Level Washington Center
06:01PM 39.0486 -77.0350 230° Southwest 375 432 38,000  Level Washington Center
06:02PM 38.9725 -77.1189 221° Southwest 375 432 38,000  Level Washington Center
06:03PM 38.8942 -77.2025 220° Southwest 375 432 38,000  Level Washington Center
06:04PM 38.8158 -77.2914 221° Southwest 375 432 38,000  Level Washington Center
06:05PM 38.7356 -77.3747 219° Southwest 380 437 38,000  Level Washington Center
06:06PM 38.6569 -77.4633 221° Southwest 380 437 38,000  Level Washington Center
06:07PM 38.5764 -77.5489 220° Southwest 380 437 38,000  Level Washington Center
06:08PM 38.5000 -77.6317 220° Southwest 380 437 38,000  Level Washington Center
06:09PM 38.4192 -77.7169 220° Southwest 380 437 38,000  Level Washington Center
06:10PM 38.3428 -77.7994 220° Southwest 380 437 38,000  Level Washington Center
06:11PM 38.2639 -77.8844 220° Southwest 375 432 38,000  Level Washington Center
06:12PM 38.1789 -77.9769 221° Southwest 375 432 38,000  Level Washington Center
06:13PM 38.1000 -78.0614 220° Southwest 375 432 38,000  Level Washington Center
06:14PM 38.0189 -78.1458 219° Southwest 375 432 38,000  Level Washington Center
06:15PM 37.9400 -78.2275 219° Southwest 375 432 38,000  Level Washington Center
06:16PM 37.8589 -78.3061 217° Southwest 375 432 38,000  Level Washington Center
06:17PM 37.7822 -78.3769 216° Southwest 380 437 38,000  Level Washington Center
06:18PM 37.7011 -78.4553 217° Southwest 380 437 38,000  Level Washington Center
06:19PM 37.6181 -78.5308 216° Southwest 375 432 38,000  Level Washington Center
06:20PM 37.5347 -78.6089 217° Southwest 375 432 38,000  Level Washington Center
06:21PM 37.4428 -78.6942 216° Southwest 375 432 38,000  Level Washington Center
06:22PM 37.3614 -78.7719 217° Southwest 375 432 38,000  Level Washington Center
06:23PM 37.2758 -78.8492 216° Southwest 375 432 38,000  Level Washington Center
06:24PM 37.1925 -78.9264 216° Southwest 375 432 38,000  Level Washington Center
06:25PM 37.1197 -78.9936 216° Southwest 375 432 38,000  Level Washington Center
06:26PM 37.0383 -79.0681 216° Southwest 375 432 38,000  Level Washington Center
06:27PM 36.9589 -79.1450 218° Southwest 375 432 38,000  Level Washington Center
06:28PM 36.8772 -79.2192 216° Southwest 375 432 38,000  Level Washington Center
06:31PM 36.6533 -79.4225 216° Southwest 370 426 38,000  Level Atlanta Center
06:32PM 36.5728 -79.4969 217° Southwest 359 413 38,000  Level Atlanta Center
06:33PM 36.4939 -79.5658 215° Southwest 359 413 38,000  Level Atlanta Center
06:34PM 36.4114 -79.6428 217° Southwest 364 419 38,000  Level Atlanta Center
06:35PM 36.3264 -79.7197 216° Southwest 364 419 38,000  Level Atlanta Center
06:36PM 36.2436 -79.7961 217° Southwest 364 419 38,100  Climbing Atlanta Center
06:37PM 36.1506 -79.8781 215° Southwest 364 419 38,000 -60 Descending Atlanta Center
06:38PM 36.0675 -79.9544 217° Southwest 364 419 38,000  Level Atlanta Center
06:39PM 35.9669 -80.0006 200° South 364 419 38,000  Level Atlanta Center
06:40PM 35.8739 -80.0308 195° South 377 434 38,000  Level Atlanta Center
06:41PM 35.7708 -80.0667 196° South 382 440 38,000  Level Atlanta Center
06:42PM 35.6594 -80.1025 195° South 387 445 38,000  Level Atlanta Center
06:43PM 35.5539 -80.1358 194° South 387 445 38,000  Level Atlanta Center
06:44PM 35.4467 -80.1714 195° South 398 458 38,000  Level Atlanta Center
06:45PM 35.3536 -80.2039 196° South 393 452 38,100  Climbing Atlanta Center
06:46PM 35.2483 -80.2367 194° South 393 452 38,000 -60 Descending Atlanta Center
06:48PM 35.0447 -80.3014 195° South 379 436 38,000  Level Jacksonville Center
06:49PM 34.9475 -80.3347 196° South 373 429 38,000  Level Jacksonville Center
06:50PM 34.8478 -80.3656 194° South 368 423 38,000  Level Jacksonville Center
06:51PM 34.7483 -80.3989 195° South 356 410 38,000  Level Jacksonville Center
06:52PM 34.6531 -80.4292 195° South 356 410 38,000  Level Jacksonville Center
06:53PM 34.5578 -80.4572 194° South 356 410 38,000  Level Jacksonville Center
06:54PM 34.4622 -80.4875 195° South 356 410 38,000  Level Jacksonville Center
06:55PM 34.3692 -80.5178 195° South 356 410 38,000  Level Jacksonville Center
06:56PM 34.2736 -80.5506 196° South 356 410 38,000  Level Jacksonville Center
06:57PM 34.1803 -80.5783 194° South 356 410 38,000  Level Jacksonville Center
06:58PM 34.0850 -80.6083 195° South 356 410 38,000  Level Jacksonville Center
06:59PM 33.9917 -80.6383 195° South 356 410 38,000  Level Jacksonville Center
07:00PM 33.8961 -80.6683 195° South 356 410 38,000  Level Jacksonville Center
07:01PM 33.8028 -80.6956 194° South 356 410 38,000  Level Jacksonville Center
07:02PM 33.7114 -80.7253 195° South 356 410 38,000  Level Jacksonville Center
07:03PM 33.6181 -80.7525 194° South 356 410 38,000  Level Jacksonville Center
07:04PM 33.5244 -80.7822 195° South 356 410 38,000  Level Jacksonville Center
07:05PM 33.4292 -80.8144 196° South 356 410 38,000  Level Jacksonville Center
07:06PM 33.3314 -80.8417 193° South 356 410 38,000  Level Jacksonville Center
07:07PM 33.2381 -80.8711 195° South 356 410 38,000  Level Jacksonville Center
07:08PM 33.1425 -80.9006 194° South 356 410 38,000  Level Jacksonville Center
07:09PM 33.0489 -80.9275 194° South 356 410 38,000  Level Jacksonville Center
07:10PM 32.9556 -80.9567 195° South 356 410 38,000  Level Jacksonville Center
07:11PM 32.8578 -80.9883 195° South 356 410 38,000  Level Jacksonville Center
07:12PM 32.7622 -81.0175 194° South 356 410 38,000  Level Jacksonville Center
07:13PM 32.6667 -81.0442 193° South 351 404 38,000  Level Jacksonville Center
07:14PM 32.5689 -81.0758 195° South 358 412 38,000  Level Jacksonville Center
07:15PM 32.4775 -81.1047 195° South 371 427 38,000  Level Jacksonville Center
07:16PM 32.3631 -81.1364 193° South 377 434 38,000  Level Jacksonville Center
07:17PM 32.2611 -81.1656 194° South 375 432 38,000  Level Jacksonville Center
07:18PM 32.1636 -81.1942 194° South 368 423 38,000  Level Jacksonville Center
07:19PM 32.0808 -81.2619 215° Southwest 363 418 38,000  Level Jacksonville Center
07:20PM 32.0067 -81.3369 221° Southwest 357 411 38,000  Level Jacksonville Center
07:21PM 31.9364 -81.4042 219° Southwest 366 421 38,000  Level Jacksonville Center
07:22PM 31.8561 -81.4861 221° Southwest 361 415 38,000  Level Jacksonville Center
07:23PM 31.7794 -81.5631 220° Southwest 361 415 38,000  Level Jacksonville Center
07:24PM 31.7092 -81.6300 219° Southwest 367 422 38,000  Level Jacksonville Center
07:25PM 31.6244 -81.7142 220° Southwest 372 428 38,000  Level Jacksonville Center
07:26PM 31.5542 -81.7808 219° Southwest 373 429 38,000  Level Jacksonville Center
07:27PM 31.4672 -81.8647 219° Southwest 373 429 38,000  Level Jacksonville Center
07:28PM 31.3906 -81.9408 220° Southwest 373 429 38,000  Level Jacksonville Center
07:29PM 31.2925 -81.9833 200° South 369 425 38,000  Level Jacksonville Center
07:30PM 31.1883 -82.0061 191° South 380 437 38,000 -300 Level Jacksonville Center
07:31PM 31.0819 -82.0267 189° South 387 445 37,400 -840 Descending Jacksonville Center
07:32PM 30.9778 -82.0517 192° South 392 451 36,400 -960 Descending Jacksonville Center
07:33PM 30.8714 -82.0744 190° South 392 451 35,500 -960 Descending Jacksonville Center
07:34PM 30.7653 -82.0997 192° South 392 451 34,500 -780 Descending Jacksonville Center
07:35PM 30.6672 -82.1222 191° South 392 451 34,000 -300 Descending Jacksonville Center
07:36PM 30.5608 -82.1472 191° South 397 457 34,000  Level Jacksonville Center
07:37PM 30.4544 -82.1647 188° South 392 451 34,000 -60 Level Jacksonville Center
07:38PM 30.3439 -82.1897 191° South 392 451 33,900 -600 Descending Jacksonville Center
07:39PM 30.2356 -82.2122 190° South 392 451 32,900 -960 Descending Jacksonville Center
07:40PM 30.1206 -82.2225 184° South 398 458 32,000 -1,020 Descending Jacksonville Center
07:41PM 30.0036 -82.1994 170° South 413 475 30,900 -1,080 Descending Jacksonville Center
07:42PM 29.8886 -82.1572 162° South 418 481 29,900 -1,680 Descending Jacksonville Center
07:43PM 29.7714 -82.1150 163° South 433 498 27,600 -2,400 Descending Jacksonville Center
07:44PM 29.6606 -82.0681 160° South 433 498 25,200 -2,280 Descending Jacksonville Center
07:45PM 29.5517 -82.0308 163° South 428 493 23,100 -2,160 Descending Jacksonville Center
07:46PM 29.4428 -81.9911 162° South 416 479 20,900 -2,220 Descending Jacksonville Center
07:47PM 29.3361 -81.9517 162° South 410 472 18,700 -2,220 Descending Jacksonville Center
07:48PM 29.2356 -81.9169 163° South 400 460 16,500 -2,220 Descending Jacksonville Center
07:49PM 29.1372 -81.8750 160° South 388 447 14,300 -2,100 Descending Jacksonville Center
07:50PM 29.0472 -81.8403 161° South 362 417 12,300 -1,200 Descending Jacksonville Center
07:51PM 28.9697 -81.7983 155° Southeast 336 387 11,900 -840 Descending Jacksonville Center
07:52PM 28.9167 -81.7256 130° Southeast 307 353 10,700 -1,260 Descending Jacksonville Center
07:53PM 28.8639 -81.6550 130° Southeast 299 344 9,400 -1,080 Descending Jacksonville Center
07:53PM 28.8333 -81.6000 122° Southeast 278 320 9,100 -1,140 Descending Orlando TRACON
07:54PM 28.7667 -81.5333 139° Southeast 283 326 7,600 -1,440 Descending Orlando TRACON
07:55PM 28.7167 -81.4667 131° Southeast 296 341 6,100 -1,320 Descending Orlando TRACON
07:56PM 28.6667 -81.4000 131° Southeast 290 334 5,000 -960 Descending Orlando TRACON
07:57PM 28.6333 -81.3333 120° Southeast 261 300 4,300 -840 Descending Orlando TRACON
07:58PM 28.5833 -81.3000 150° Southeast 189 217 3,500 -1,080 Descending Orlando TRACON
07:59PM 28.5333 -81.3000 180° South 148 170 2,200 -1,140 Descending Orlando TRACON
08:00PM 28.5000 -81.3000 180° South 138 159 1,200 -840 Descending Orlando TRACON
08:01PM 28.4500 -81.3000 180° South 140 161 600 -600 Descending Orlando TRACON
08:03PM 28.4294 -81.3090 180° South  Level Estimated
08:10PM 28.4294 -81.3090 24° Northeast  Level Estimated
08:11PM 28.4294 -81.3090 24° Northeast  Level Estimated
08:12PM 28.4294 -81.3090 24° Northeast  Level Estimated
08:13PM 28.4294 -81.3090 24° Northeast  Level Estimated